Hickory Hills, Illinois
Current Conditions -  °F | °C
As of 6:53 PM on Saturday 25 Oct 2014 (Local Time) from KMDW Reporting Station
Clear Clear  
Wind Chill: 67°   Ceiling: Unl
Heat Index: 67°   Visibility: 10mi
Dew Point: 27°   Wind: 12mph
Humidity: 22%   Direction: 290°WNW
Pressure: 29.92"   Gusts: NA
Location:  41.72°N, 87.83°W
Report Text: KMDW 252353Z 29010KT 10SM CLR 19/M03 A2992 RMK AO2 SLP129 T01941028 10239 20189 53006
Loading
Personal Weather Stations






























Interactive Weather Map
Tropical Storm Tracking
New forecast layout! Learn more

10-Day Weather Forecast

Advertisements
Track Severe Weather on mobile